Time;durP1;ratioP1;P1;durP2;ratioP2;P2;SDS_P1;SDS_P2;PMS_P1;PMS_P2;Temp;Humidity;BMP_temperature;BMP_pressure;BME280_temperature;BME280_humidity;BME280_pressure;Samples;Min_cycle;Max_cycle;Signal;HPM_P1;HPM_P2
2023/04/19 00:00:38;;;;;;;17.85;13.00;;;;;;;11.31;100.00;100986.47;5114405;28;20027;-75
2023/04/19 00:03:08;;;;;;;15.27;13.05;;;;;;;11.51;100.00;101000.63;5114529;28;20413;-76
2023/04/19 00:05:34;;;;;;;18.63;13.40;;;;;;;11.47;100.00;100994.72;5113894;28;20509;-76
2023/04/19 00:07:59;;;;;;;15.50;13.65;;;;;;;11.57;100.00;100978.41;5132983;28;20053;-76
2023/04/19 00:10:25;;;;;;;15.93;13.85;;;;;;;11.47;100.00;100961.59;5114497;28;20408;-77
2023/04/19 00:12:51;;;;;;;16.83;13.88;;;;;;;11.60;100.00;100944.44;5113756;28;20486;-76
2023/04/19 00:15:16;;;;;;;16.63;14.45;;;;;;;11.15;100.00;100867.09;5132200;28;20058;-77
2023/04/19 00:17:42;;;;;;;15.52;13.48;;;;;;;11.32;100.00;100873.59;5113893;28;20099;-76
2023/04/19 00:20:08;;;;;;;18.20;14.35;;;;;;;11.55;100.00;100919.03;5114369;28;20035;-76
2023/04/19 00:22:34;;;;;;;16.13;13.50;;;;;;;11.20;100.00;100850.88;5113813;28;20114;-76
2023/04/19 00:25:04;;;;;;;18.00;14.23;;;;;;;11.39;100.00;100896.41;5132261;28;20390;-77
2023/04/19 00:27:29;;;;;;;20.08;14.45;;;;;;;11.28;100.00;100878.75;5131859;28;20034;-76
2023/04/19 00:29:56;;;;;;;18.20;14.07;;;;;;;11.40;100.00;100880.25;5113981;28;20035;-76
2023/04/19 00:32:21;;;;;;;18.83;14.10;;;;;;;11.44;100.00;100898.00;5132454;28;20795;-76
2023/04/19 00:34:46;;;;;;;19.67;15.05;;;;;;;11.51;100.00;100880.94;5113627;28;20028;-75
2023/04/19 00:37:12;;;;;;;19.50;15.00;;;;;;;11.49;100.00;100870.75;5132037;28;20038;-76
2023/04/19 00:39:37;;;;;;;17.85;14.93;;;;;;;11.18;100.00;100839.03;5115102;27;20183;-77
2023/04/19 00:42:03;;;;;;;20.63;15.52;;;;;;;11.54;100.00;100889.34;5117213;27;20473;-76
2023/04/19 00:44:28;;;;;;;21.02;15.75;;;;;;;11.07;100.00;100828.22;5117698;27;20031;-76
2023/04/19 00:46:55;;;;;;;19.73;15.75;;;;;;;11.11;100.00;100828.13;5135121;27;20475;-76
2023/04/19 00:49:23;;;;;;;21.58;16.02;;;;;;;11.18;100.00;100834.81;5117938;27;20469;-76
2023/04/19 00:51:50;;;;;;;23.55;17.50;;;;;;;11.56;100.00;100864.69;5118176;27;20031;-75
2023/04/19 00:54:16;;;;;;;24.77;17.52;;;;;;;11.41;100.00;100826.75;5117279;27;20031;-76
2023/04/19 00:56:43;;;;;;;23.77;17.60;;;;;;;11.57;100.00;100852.81;5117281;27;20051;-76
2023/04/19 00:59:09;;;;;;;23.13;18.83;;;;;;;11.51;100.00;100851.19;5136046;27;20023;-76
2023/04/19 01:01:35;;;;;;;23.95;17.45;;;;;;;11.23;100.00;100794.81;5136044;27;20042;-76
2023/04/19 01:04:01;;;;;;;21.35;16.98;;;;;;;10.86;100.00;100722.53;5117760;27;20031;-76
2023/04/19 01:06:28;;;;;;;21.77;16.40;;;;;;;10.78;100.00;100734.56;5117520;27;20044;-76
2023/04/19 01:08:54;;;;;;;22.60;17.73;;;;;;;11.49;100.00;100824.09;5135917;27;20027;-76
2023/04/19 01:11:20;;;;;;;20.73;16.63;;;;;;;11.57;100.00;100828.16;5117431;27;20035;-76
2023/04/19 01:13:45;;;;;;;24.10;17.80;;;;;;;11.17;100.00;100783.94;5116739;27;20028;-77
2023/04/19 01:16:11;;;;;;;21.70;17.77;;;;;;;11.55;100.00;100824.00;5117480;27;20553;-76
2023/04/19 01:18:38;;;;;;;23.27;17.98;;;;;;;11.35;100.00;100801.41;5116693;27;20027;-76
2023/04/19 01:21:04;;;;;;;23.55;18.75;;;;;;;11.10;100.00;100742.47;5117260;27;20032;-76
2023/04/19 01:23:30;;;;;;;24.98;18.85;;;;;;;11.41;100.00;100792.84;5135075;27;20049;-76
2023/04/19 01:25:55;;;;;;;26.73;19.38;;;;;;;11.45;100.00;100810.56;5117084;27;20035;-77
2023/04/19 01:28:21;;;;;;;24.92;19.10;;;;;;;11.34;100.00;100762.41;5116092;27;20054;-76
2023/04/19 01:30:48;;;;;;;27.42;20.65;;;;;;;11.39;100.00;100787.75;5117034;27;20015;-76
2023/04/19 01:33:13;;;;;;;24.33;18.63;;;;;;;10.90;100.00;100695.34;5135628;27;20027;-77
2023/04/19 01:35:38;;;;;;;26.23;18.27;;;;;;;11.41;100.00;100788.56;5117206;27;20019;-77
2023/04/19 01:38:04;;;;;;;24.90;18.73;;;;;;;11.38;100.00;100788.63;5116435;27;20496;-77
2023/04/19 01:40:29;;;;;;;32.15;19.08;;;;;;;11.42;100.00;100785.16;5135203;27;20039;-77
2023/04/19 01:42:55;;;;;;;23.08;18.10;;;;;;;11.20;100.00;100773.69;5117184;27;20023;-76
2023/04/19 01:45:22;;;;;;;24.50;18.45;;;;;;;11.49;100.00;100816.47;5116771;27;20054;-77
2023/04/19 01:47:47;;;;;;;25.00;19.00;;;;;;;11.53;100.00;100815.53;5134311;27;20074;-76
2023/04/19 01:50:13;;;;;;;27.50;19.33;;;;;;;11.49;100.00;100812.19;5116391;27;20454;-76
2023/04/19 01:52:38;;;;;;;27.92;19.13;;;;;;;11.34;100.00;100798.03;5116792;27;20027;-77
2023/04/19 01:55:04;;;;;;;25.55;19.08;;;;;;;10.82;100.00;100718.38;5138526;27;20042;-76
2023/04/19 01:57:29;;;;;;;26.48;18.80;;;;;;;11.24;100.00;100768.53;5119644;27;20050;-76
2023/04/19 01:59:56;;;;;;;23.23;17.83;;;;;;;11.63;100.00;100827.19;5134449;27;20080;-77
2023/04/19 02:02:21;;;;;;;22.67;17.05;;;;;;;11.06;100.00;100765.44;5134730;27;20015;-77
2023/04/19 02:04:47;;;;;;;23.58;17.08;;;;;;;11.32;100.00;100781.09;5116324;27;20034;-77
2023/04/19 02:07:12;;;;;;;24.13;17.13;;;;;;;10.95;100.00;100759.72;5116052;27;20035;-77
2023/04/19 02:09:37;;;;;;;24.08;17.13;;;;;;;10.78;100.00;100733.72;5115868;27;20118;-76
2023/04/19 02:12:04;;;;;;;20.77;16.10;;;;;;;11.00;100.00;100763.84;5116035;27;20501;-76
2023/04/19 02:14:30;;;;;;;21.90;16.50;;;;;;;11.46;100.00;100821.59;5134125;27;20034;-77
2023/04/19 02:16:56;;;;;;;20.92;16.17;;;;;;;10.99;100.00;100744.34;5116272;27;20027;-77
2023/04/19 02:19:21;;;;;;;19.42;15.98;;;;;;;11.42;100.00;100791.97;5134513;27;20088;-77
2023/04/19 02:21:47;;;;;;;23.85;17.80;;;;;;;11.04;100.00;100762.09;5133741;27;20118;-77
2023/04/19 02:24:12;;;;;;;23.25;17.15;;;;;;;11.19;100.00;100757.56;5115635;27;20027;-77
2023/04/19 02:26:38;;;;;;;20.73;16.25;;;;;;;11.24;100.00;100754.94;5134093;27;20382;-77
2023/04/19 02:29:04;;;;;;;26.25;18.15;;;;;;;11.51;100.00;100817.28;5133881;27;20026;-76
2023/04/19 02:31:30;;;;;;;23.40;17.65;;;;;;;10.78;100.00;100723.53;5133981;27;20019;-77
2023/04/19 02:33:55;;;;;;;23.38;17.88;;;;;;;11.05;100.00;100766.34;5124443;27;20032;-77
2023/04/19 02:36:21;;;;;;;21.75;17.23;;;;;;;11.08;100.00;100771.34;5094691;28;20059;-77
2023/04/19 02:38:46;;;;;;;25.42;20.05;;;;;;;11.54;100.00;100832.47;5113216;28;20035;-77
2023/04/19 02:41:12;;;;;;;25.10;18.27;;;;;;;11.36;100.00;100787.81;5094716;28;20024;-76
2023/04/19 02:43:37;;;;;;;23.30;18.73;;;;;;;11.56;100.00;100784.91;5112601;28;20032;-77
2023/04/19 02:46:03;;;;;;;32.50;24.35;;;;;;;11.40;100.00;100763.13;5112665;28;20031;-77
2023/04/19 02:48:28;;;;;;;33.70;26.42;;;;;;;11.42;100.00;100797.91;5113106;28;20418;-77
2023/04/19 02:50:53;;;;;;;33.00;25.48;;;;;;;11.43;100.00;100791.91;5095242;28;20031;-78
2023/04/19 02:53:19;;;;;;;29.20;23.70;;;;;;;11.52;100.00;100811.28;5112587;28;20035;-77
2023/04/19 02:55:44;;;;;;;30.60;23.85;;;;;;;11.32;100.00;100793.84;5107915;27;20031;-77
2023/04/19 02:58:10;;;;;;;28.45;21.63;;;;;;;10.96;100.00;100743.56;5108149;28;20133;-76
2023/04/19 03:00:37;;;;;;;27.67;21.13;;;;;;;11.10;100.00;100741.63;5091053;28;20055;-76
2023/04/19 03:03:06;;;;;;;26.20;21.38;;;;;;;11.11;100.00;100763.69;5110594;28;20032;-77
2023/04/19 03:05:31;;;;;;;27.02;21.55;;;;;;;11.57;100.00;100824.81;5112388;28;20039;-77
2023/04/19 03:07:57;;;;;;;25.20;19.85;;;;;;;11.28;100.00;100779.47;5111300;28;20027;-77
2023/04/19 03:10:22;;;;;;;25.48;19.45;;;;;;;11.47;100.00;100836.00;5114522;27;20035;-76
2023/04/19 03:12:47;;;;;;;22.52;18.52;;;;;;;11.61;100.00;100839.13;5121274;27;20417;-77
2023/04/19 03:15:13;;;;;;;23.15;18.48;;;;;;;11.17;100.00;100786.47;5132448;27;20121;-76
2023/04/19 03:17:38;;;;;;;24.73;19.00;;;;;;;11.30;100.00;100801.50;5132843;27;20100;-77
2023/04/19 03:20:15;;;;;;;23.02;17.70;;;;;;;11.14;100.00;100823.00;5131980;27;20022;-77
2023/04/19 03:22:41;;;;;;;24.00;18.13;;;;;;;11.48;100.00;100864.00;5132135;27;20473;-77
2023/04/19 03:25:07;;;;;;;22.88;18.77;;;;;;;11.48;100.00;100853.81;5132545;27;20031;-76
2023/04/19 03:27:35;;;;;;;26.25;20.17;;;;;;;11.32;100.00;100860.88;5131640;27;20107;-76
2023/04/19 03:30:01;;;;;;;27.58;20.25;;;;;;;11.06;100.00;100801.06;5131679;27;20027;-77
2023/04/19 03:32:26;;;;;;;24.80;19.10;;;;;;;10.98;100.00;100763.03;5116785;27;20463;-77
2023/04/19 03:34:52;;;;;;;23.08;18.05;;;;;;;11.62;100.00;100864.59;5111510;28;20028;-77
2023/04/19 03:37:17;;;;;;;14.40;11.88;;;;;;;12.00;100.00;100795.09;5129348;27;20031;-74
2023/04/19 03:39:42;;;;;;;23.20;18.15;;;;;;;11.44;100.00;100871.69;5132743;27;20027;-75
2023/04/19 03:42:08;;;;;;;20.83;15.63;;;;;;;11.02;100.00;100791.81;5132677;27;20039;-79
2023/04/19 03:44:33;;;;;;;19.27;15.07;;;;;;;11.20;100.00;100817.81;5131547;28;20122;-77
2023/04/19 03:46:59;;;;;;;21.38;16.67;;;;;;;11.25;100.00;100810.91;5126880;28;20031;-77
2023/04/19 03:49:24;;;;;;;22.58;16.92;;;;;;;11.55;100.00;100864.72;5109924;28;20474;-82
2023/04/19 03:51:50;;;;;;;20.92;16.83;;;;;;;11.37;100.00;100822.59;5110064;28;20122;-79
2023/04/19 03:54:16;;;;;;;23.55;19.90;;;;;;;11.52;100.00;100860.53;5106456;28;20485;-79
2023/04/19 03:56:43;;;;;;;22.98;18.42;;;;;;;11.54;100.00;100868.97;5113879;28;20055;-78
2023/04/19 03:59:09;;;;;;;18.98;15.80;;;;;;;11.57;100.00;100858.72;5132270;28;20113;-78
2023/04/19 04:01:40;;;;;;;18.17;15.15;;;;;;;11.66;100.00;100845.88;5131795;28;20118;-78
2023/04/19 04:04:10;;;;;;;30.85;23.75;;;;;;;11.28;100.00;100776.94;5113521;28;20034;-80
2023/04/19 04:06:36;;;;;;;25.73;18.77;;;;;;;11.54;100.00;100845.22;5113535;28;20035;-79
2023/04/19 04:09:01;;;;;;;22.88;18.55;;;;;;;11.45;100.00;100825.84;5113334;28;20046;-79
2023/04/19 04:11:27;;;;;;;17.15;14.05;;;;;;;11.26;100.00;100788.84;5113099;28;20027;-78
2023/04/19 04:13:53;;;;;;;14.68;13.02;;;;;;;11.70;100.00;100821.19;5131380;27;21014;-78
2023/04/19 04:16:18;;;;;;;17.08;12.60;;;;;;;11.41;100.00;100571.34;5117663;27;20031;-82
2023/04/19 04:18:44;;;;;;;15.55;12.73;;;;;;;11.50;100.00;100375.94;5117632;27;20027;-81
2023/04/19 04:21:09;;;;;;;14.20;11.73;;;;;;;11.30;100.00;100370.50;5117703;27;20114;-78
2023/04/19 04:23:34;;;;;;;13.30;11.02;;;;;;;11.41;100.00;100363.41;5136059;27;20050;-79
2023/04/19 04:26:00;;;;;;;11.90;10.27;;;;;;;11.38;100.00;100335.50;5117269;27;20034;-78
2023/04/19 04:28:26;;;;;;;13.73;11.45;;;;;;;11.69;100.00;100366.13;5117905;27;20430;-79
2023/04/19 04:30:56;;;;;;;13.60;11.18;;;;;;;11.67;100.00;100361.06;5135358;27;20043;-79
2023/04/19 04:33:26;;;;;;;14.02;11.65;;;;;;;11.77;100.00;100356.56;5135749;27;20027;-81
2023/04/19 04:35:52;;;;;;;13.73;12.27;;;;;;;11.47;100.00;100294.53;5135615;27;20031;-80
2023/04/19 04:38:19;;;;;;;19.25;16.40;;;;;;;11.42;100.00;100298.06;5135872;27;20130;-80
2023/04/19 04:40:52;;;;;;;20.98;17.42;;;;;;;11.88;100.00;100352.88;5135416;27;20045;-80
2023/04/19 04:43:20;;;;;;;21.70;17.77;;;;;;;11.60;100.00;100326.44;5115913;27;20040;-78
2023/04/19 04:45:45;;;;;;;29.02;17.10;;;;;;;13.24;100.00;100235.56;5117129;27;20027;-77
2023/04/19 04:48:11;;;;;;;14.27;11.70;;;;;;;12.23;100.00;100182.81;5135848;27;20095;-78
2023/04/19 04:50:36;;;;;;;19.65;14.30;;;;;;;11.48;100.00;100224.06;5117660;27;20039;-79
2023/04/19 04:53:01;;;;;;;75.47;50.38;;;;;;;12.04;100.00;100266.66;5118162;27;20027;-79
2023/04/19 04:55:27;;;;;;;19.05;15.90;;;;;;;11.67;100.00;100194.69;5135711;27;20120;-81
2023/04/19 04:57:52;;;;;;;21.85;16.90;;;;;;;12.07;100.00;100271.63;5116635;27;20055;-77
2023/04/19 05:00:18;;;;;;;34.25;25.30;;;;;;;11.61;100.00;100225.38;5135653;27;20205;-80
2023/04/19 05:02:43;;;;;;;14.23;11.77;;;;;;;11.54;100.00;100212.03;5117405;27;20033;-81
2023/04/19 05:05:10;;;;;;;14.45;12.02;;;;;;;11.91;100.00;100271.25;5117812;27;20408;-79
2023/04/19 05:07:35;;;;;;;14.38;12.30;;;;;;;11.92;100.00;100213.50;5117620;27;20150;-81
2023/04/19 05:10:01;;;;;;;13.68;12.27;;;;;;;12.17;100.00;100207.59;5116719;27;20055;-81
2023/04/19 05:12:26;;;;;;;14.18;12.43;;;;;;;12.40;100.00;100211.16;5116944;27;20024;-82
2023/04/19 05:14:52;;;;;;;16.70;13.77;;;;;;;12.57;100.00;100209.75;5135151;27;20031;-81
2023/04/19 05:17:17;;;;;;;21.38;18.60;;;;;;;12.54;100.00;100206.47;5117190;27;20049;-81
2023/04/19 05:19:43;;;;;;;27.35;24.00;;;;;;;12.51;100.00;100209.09;5134821;27;20027;-77
2023/04/19 05:22:08;;;;;;;31.92;25.20;;;;;;;12.66;100.00;100194.13;5134256;27;20104;-79
2023/04/19 05:24:34;;;;;;;28.45;23.88;;;;;;;11.70;100.00;100093.59;5136113;27;20020;-80
2023/04/19 05:27:00;;;;;;;23.02;20.55;;;;;;;12.35;100.00;100156.91;5134173;27;20042;-77
2023/04/19 05:29:26;;;;;;;11.50;10.10;;;;;;;11.70;100.00;100091.03;5135557;27;20065;-77
2023/04/19 05:31:51;;;;;;;23.25;20.73;;;;;;;12.35;100.00;100150.13;5116819;27;20043;-80
2023/04/19 05:34:17;;;;;;;24.25;21.75;;;;;;;12.71;100.00;100192.28;5117145;27;20434;-78
2023/04/19 05:36:42;;;;;;;10.02;9.02;;;;;;;11.90;100.00;100165.16;5116197;27;20571;-77
2023/04/19 05:39:08;;;;;;;13.25;11.85;;;;;;;12.71;100.00;100215.22;5117162;27;20027;-78
2023/04/19 05:41:33;;;;;;;9.73;8.70;;;;;;;12.67;100.00;100235.78;5134815;27;20616;-80
2023/04/19 05:43:59;;;;;;;9.68;8.68;;;;;;;12.53;100.00;100236.22;5116704;27;20071;-81
2023/04/19 05:46:24;;;;;;;11.10;8.07;;;;;;;12.41;100.00;100246.81;5116685;27;20053;-80
2023/04/19 05:48:50;;;;;;;8.02;7.20;;;;;;;12.33;100.00;100260.66;5135183;27;20030;-77
2023/04/19 05:51:17;;;;;;;19.13;15.05;;;;;;;12.52;100.00;100223.53;5116614;27;20038;-79
2023/04/19 05:53:44;;;;;;;14.82;12.95;;;;;;;13.08;100.00;100276.09;5116661;27;20035;-78
2023/04/19 05:56:09;;;;;;;9.13;7.38;;;;;;;12.99;100.00;100281.50;5116543;27;20121;-79
2023/04/19 05:58:35;;;;;;;4.35;3.80;;;;;;;12.57;100.00;100287.97;5134887;27;20099;-80
2023/04/19 06:01:01;;;;;;;6.13;4.82;;;;;;;12.47;100.00;100233.88;5134645;27;20030;-81
2023/04/19 06:03:27;;;;;;;6.40;5.80;;;;;;;12.73;100.00;100250.88;5134757;27;20026;-80
2023/04/19 06:05:52;;;;;;;6.32;5.10;;;;;;;12.44;100.00;100207.63;5134423;27;20027;-79
2023/04/19 06:08:17;;;;;;;4.53;4.13;;;;;;;13.07;100.00;100265.06;5116289;27;20093;-79
2023/04/19 06:10:46;;;;;;;5.18;4.18;;;;;;;13.01;100.00;100228.69;5134540;27;20471;-80
2023/04/19 06:13:12;;;;;;;6.75;3.90;;;;;;;13.07;100.00;100194.47;5116256;27;20027;-78
2023/04/19 06:15:39;;;;;;;4.45;2.92;;;;;;;13.31;100.00;100170.66;5134618;27;20034;-81
2023/04/19 06:18:09;;;;;;;4.85;2.53;;;;;;;13.18;100.00;100136.22;5116549;27;20058;-77
2023/04/19 06:20:38;;;;;;;2.65;2.33;;;;;;;13.50;100.00;100080.53;5115918;27;20031;-81
2023/04/19 06:23:04;;;;;;;3.15;2.67;;;;;;;13.09;100.00;99983.41;5133886;27;20086;-80
2023/04/19 06:25:30;;;;;;;2.17;1.98;;;;;;;13.41;100.00;99957.47;5134222;27;20034;-79
2023/04/19 06:27:55;;;;;;;3.15;2.03;;;;;;;13.34;100.00;99910.91;5134351;27;20027;-80
2023/04/19 06:30:20;;;;;;;4.20;1.80;;;;;;;13.59;100.00;99929.44;5115301;27;20056;-81
2023/04/19 06:32:46;;;;;;;3.90;2.45;;;;;;;13.30;100.00;99842.97;5134050;27;20031;-79
2023/04/19 06:35:13;;;;;;;2.70;1.60;;;;;;;13.14;100.00;99826.63;5115516;27;20035;-79
2023/04/19 06:37:38;;;;;;;1.95;1.67;;;;;;;13.41;100.00;99868.91;5114760;27;20038;-78
2023/04/19 06:40:07;;;;;;;2.20;2.00;;;;;;;13.17;100.00;99769.53;5133627;27;20027;-78
2023/04/19 06:42:32;;;;;;;3.55;1.52;;;;;;;13.65;100.00;99811.69;5115800;27;20083;-78
2023/04/19 06:44:58;;;;;;;4.20;2.00;;;;;;;13.68;100.00;99788.56;5133768;27;20023;-78
2023/04/19 06:47:23;;;;;;;2.15;1.50;;;;;;;13.59;100.00;99786.41;5115473;27;20130;-78
2023/04/19 06:49:49;;;;;;;1.52;1.30;;;;;;;13.81;100.00;99753.06;5115886;27;20031;-78
2023/04/19 06:52:14;;;;;;;1.85;1.50;;;;;;;13.71;100.00;99760.31;5115576;27;20118;-78
2023/04/19 06:54:40;;;;;;;1.48;1.23;;;;;;;13.82;100.00;99750.47;5115300;27;20035;-77
2023/04/19 06:57:05;;;;;;;3.05;2.03;;;;;;;13.80;100.00;99728.44;5115279;27;20076;-78
2023/04/19 06:59:32;;;;;;;5.60;3.70;;;;;;;14.13;100.00;99749.03;5115151;27;20046;-78
2023/04/19 07:01:58;;;;;;;7.82;4.03;;;;;;;14.20;100.00;99729.97;5133232;27;20068;-77
2023/04/19 07:04:25;;;;;;;4.03;2.20;;;;;;;13.78;100.00;99694.44;5133898;27;20023;-78
2023/04/19 07:06:50;;;;;;;2.83;2.00;;;;;;;13.98;100.00;99732.72;5133780;27;20031;-76
2023/04/19 07:09:16;;;;;;;1.70;1.30;;;;;;;14.18;100.00;99721.56;5115214;27;20023;-77
2023/04/19 07:11:41;;;;;;;1.77;1.42;;;;;;;14.22;100.00;99695.75;5134053;27;20026;-76
2023/04/19 07:14:07;;;;;;;1.90;1.13;;;;;;;14.25;100.00;99682.84;5115137;27;20121;-77
2023/04/19 07:16:32;;;;;;;1.67;1.20;;;;;;;14.50;100.00;99652.63;5115423;27;20507;-77
2023/04/19 07:19:03;;;;;;;5.25;2.08;;;;;;;14.21;100.00;99626.78;5132915;27;20046;-78
2023/04/19 07:21:32;;;;;;;7.38;2.90;;;;;;;14.51;100.00;99615.09;5133220;27;20106;-77
2023/04/19 07:23:58;;;;;;;4.07;1.92;;;;;;;15.21;100.00;99584.97;5115205;27;20035;-78
2023/04/19 07:26:23;;;;;;;1.65;1.00;;;;;;;14.71;100.00;99556.09;5114972;27;20113;-76
2023/04/19 07:28:49;;;;;;;1.50;0.85;;;;;;;14.98;100.00;99531.59;5114695;28;20415;-78
2023/04/19 07:31:18;;;;;;;0.90;0.80;;;;;;;14.70;100.00;99587.69;5132896;27;20083;-79
2023/04/19 07:33:44;;;;;;;2.75;1.00;;;;;;;14.77;100.00;99566.84;5111139;28;20112;-76
2023/04/19 07:36:10;;;;;;;1.50;1.05;;;;;;;14.59;100.00;99543.91;5112096;28;20032;-77
2023/04/19 07:38:35;;;;;;;1.77;1.10;;;;;;;14.53;100.00;99514.38;5112149;28;20119;-77
2023/04/19 07:41:02;;;;;;;1.23;0.68;;;;;;;14.45;100.00;99547.19;5111557;28;20111;-75
2023/04/19 07:43:29;;;;;;;3.38;0.85;;;;;;;14.36;100.00;99545.06;5101946;28;20535;-76
2023/04/19 07:45:54;;;;;;;1.83;1.20;;;;;;;14.34;100.00;99517.94;5113795;28;20038;-76
2023/04/19 07:48:21;;;;;;;1.58;1.10;;;;;;;14.32;100.00;99491.63;5116691;27;20023;-76
2023/04/19 07:50:47;;;;;;;1.55;1.10;;;;;;;14.37;100.00;99485.38;5121695;27;20034;-76
2023/04/19 07:53:13;;;;;;;1.30;0.90;;;;;;;14.16;100.00;99477.94;5121465;27;20035;-76
2023/04/19 07:55:38;;;;;;;1.13;0.70;;;;;;;14.23;100.00;99444.28;5139242;27;20035;-75
2023/04/19 07:58:03;;;;;;;1.63;0.85;;;;;;;14.21;100.00;99371.13;5139223;27;20409;-75
2023/04/19 08:00:29;;;;;;;1.55;0.80;;;;;;;14.18;100.00;99369.53;5121042;27;20034;-75
2023/04/19 08:02:55;;;;;;;2.47;0.70;;;;;;;14.24;100.00;99360.75;5139475;27;20042;-74
2023/04/19 08:05:22;;;;;;;1.08;0.75;;;;;;;14.15;100.00;99351.00;5139778;27;20027;-76
2023/04/19 08:07:47;;;;;;;0.93;0.68;;;;;;;14.28;100.00;99336.72;5120853;27;20031;-77
2023/04/19 08:10:14;;;;;;;1.50;1.10;;;;;;;14.44;100.00;99304.28;5120872;27;20091;-78
2023/04/19 08:12:40;;;;;;;1.73;0.90;;;;;;;13.98;100.00;99259.06;5121079;27;20031;-77
2023/04/19 08:15:07;;;;;;;0.88;0.40;;;;;;;13.93;100.00;99272.06;5139596;27;20043;-77
2023/04/19 08:17:33;;;;;;;1.60;0.80;;;;;;;14.32;100.00;99312.63;5121690;27;20038;-77
2023/04/19 08:19:58;;;;;;;3.10;2.50;;;;;;;14.34;100.00;99295.47;5139297;27;20033;-76
2023/04/19 08:22:24;;;;;;;3.70;2.78;;;;;;;14.00;100.00;99254.69;5120953;27;20110;-78
2023/04/19 08:24:50;;;;;;;1.45;0.90;;;;;;;13.98;100.00;99234.34;5121112;27;20087;-77
2023/04/19 08:27:19;;;;;;;4.75;2.17;;;;;;;14.49;100.00;99327.88;5120917;27;20999;-76
2023/04/19 08:29:45;;;;;;;3.05;1.98;;;;;;;13.97;100.00;99301.66;5121095;27;20023;-76
2023/04/19 08:32:11;;;;;;;3.28;1.88;;;;;;;14.02;100.00;99302.28;5139324;27;20027;-76
2023/04/19 08:34:38;;;;;;;2.75;2.42;;;;;;;13.74;100.00;99241.56;5121225;27;20023;-75
2023/04/19 08:37:06;;;;;;;2.33;1.40;;;;;;;14.06;100.00;99293.53;5139441;27;20034;-75
2023/04/19 08:39:33;;;;;;;0.95;0.80;;;;;;;13.76;100.00;99283.19;5120850;27;20035;-77
2023/04/19 08:42:07;;;;;;;1.20;0.88;;;;;;;13.93;100.00;99303.56;5139253;27;20046;-75
2023/04/19 08:44:37;;;;;;;2.22;1.20;;;;;;;13.43;100.00;99274.69;5139048;27;20031;-76
2023/04/19 08:47:03;;;;;;;2.92;1.42;;;;;;;13.98;100.00;99397.06;5120953;27;20039;-76
2023/04/19 08:49:30;;;;;;;2.67;1.85;;;;;;;14.26;100.00;99372.53;5120806;27;20079;-76
2023/04/19 08:52:00;;;;;;;3.15;2.22;;;;;;;13.98;100.00;99392.78;5120430;27;20035;-76
2023/04/19 08:54:29;;;;;;;2.85;1.75;;;;;;;14.63;100.00;99394.47;5139450;27;20030;-76
2023/04/19 08:56:57;;;;;;;9.95;8.95;;;;;;;14.98;100.00;99369.50;5139761;27;20034;-76
2023/04/19 08:59:22;;;;;;;4.10;2.40;;;;;;;14.37;100.00;99344.72;5138254;27;20039;-76
2023/04/19 09:01:48;;;;;;;3.03;2.40;;;;;;;15.39;100.00;99363.69;5134735;27;20450;-76
2023/04/19 09:04:13;;;;;;;2.47;2.03;;;;;;;16.25;100.00;99347.47;5135903;27;20031;-77
2023/04/19 09:06:41;;;;;;;1.20;0.70;;;;;;;15.86;100.00;99370.38;5117266;27;20030;-76
2023/04/19 09:09:24;;;;;;;1.33;0.70;;;;;;;15.59;100.00;99378.75;5117372;27;20049;-75
2023/04/19 09:11:50;;;;;;;1.80;1.15;;;;;;;15.50;100.00;99387.00;5133307;27;20042;-80
2023/04/19 09:14:26;;;;;;;1.17;0.37;;;;;;;15.07;100.00;99320.34;4749097;27;10000788;-75
2023/04/19 09:16:52;;;;;;;4.78;1.08;;;;;;;15.40;100.00;99401.19;5132516;27;20261;-75
2023/04/19 09:19:18;;;;;;;1.00;0.60;;;;;;;15.37;100.00;99385.19;5114252;27;20034;-76
2023/04/19 09:21:43;;;;;;;2.97;0.90;;;;;;;15.43;100.00;99411.28;5132212;27;20031;-75
2023/04/19 09:24:09;;;;;;;1.88;0.70;;;;;;;14.84;100.00;99352.34;5133637;27;20034;-76
2023/04/19 09:26:35;;;;;;;4.80;2.88;;;;;;;15.17;100.00;99408.53;5132956;27;20156;-75
2023/04/19 09:29:05;;;;;;;2.97;2.30;;;;;;;15.34;100.00;99422.03;5132730;27;20104;-78
2023/04/19 09:31:32;;;;;;;1.98;1.10;;;;;;;14.89;100.00;99398.16;5114477;27;20023;-76
2023/04/19 09:34:12;;;;;;;2.65;0.95;;;;;;;15.25;100.00;99408.94;5133333;27;20042;-77
2023/04/19 09:36:38;;;;;;;2.83;1.52;;;;;;;15.37;100.00;99441.53;5133001;27;20083;-75
2023/04/19 09:39:04;;;;;;;4.70;1.60;;;;;;;15.15;100.00;99364.28;5115139;27;20121;-76
2023/04/19 09:41:31;;;;;;;3.03;1.23;;;;;;;15.32;100.00;99438.41;5132557;27;20023;-76
2023/04/19 09:44:10;;;;;;;2.88;1.20;;;;;;;15.32;100.00;99418.75;5114532;27;20116;-75
2023/04/19 09:46:36;;;;;;;2.55;1.73;;;;;;;14.88;100.00;99391.38;5114507;27;20031;-76
2023/04/19 09:49:15;;;;;;;2.35;1.88;;;;;;;15.31;100.00;99434.19;5134967;27;20027;-74
2023/04/19 09:51:44;;;;;;;3.50;2.60;;;;;;;15.28;100.00;99412.13;5134964;27;20086;-78
2023/04/19 09:54:11;;;;;;;5.40;2.00;;;;;;;15.00;100.00;99429.94;5134711;27;20106;-78
2023/04/19 09:56:37;;;;;;;3.95;2.55;;;;;;;14.85;100.00;99361.69;5116392;27;20121;-78
2023/04/19 09:59:05;;;;;;;5.63;3.15;;;;;;;15.14;100.00;99371.13;5134364;27;20043;-76
2023/04/19 10:01:40;;;;;;;4.22;1.88;;;;;;;15.28;100.00;99401.06;5133115;27;20175;-75
2023/04/19 10:04:06;;;;;;;3.58;1.80;;;;;;;14.57;100.00;99339.34;5116438;27;20028;-80
2023/04/19 10:06:34;;;;;;;2.88;1.50;;;;;;;14.75;100.00;99334.94;5134770;27;20233;-79
2023/04/19 10:09:02;;;;;;;4.00;2.13;;;;;;;15.30;100.00;99391.56;5116754;27;20031;-79
2023/04/19 10:11:39;;;;;;;4.30;1.50;;;;;;;14.68;100.00;99272.22;5115362;28;20023;-78
2023/04/19 10:14:09;;;;;;;5.25;2.65;;;;;;;15.53;100.00;99355.22;5134575;27;20035;-79
2023/04/19 10:16:36;;;;;;;3.78;2.20;;;;;;;15.47;100.00;99369.22;5134237;27;20042;-78
2023/04/19 10:19:10;;;;;;;3.42;1.90;;;;;;;14.97;100.00;99334.56;5116666;27;20019;-82
2023/04/19 10:21:37;;;;;;;4.43;2.20;;;;;;;15.11;100.00;99317.53;5134874;27;20485;-79
2023/04/19 10:24:03;;;;;;;2.03;1.48;;;;;;;14.45;100.00;99311.88;5115899;27;20035;-78
2023/04/19 10:26:29;;;;;;;4.60;1.10;;;;;;;14.54;100.00;99305.41;5115590;27;20050;-79
2023/04/19 10:28:56;;;;;;;1.95;0.90;;;;;;;15.03;100.00;99355.53;5115885;27;20122;-79
2023/04/19 10:31:23;;;;;;;1.88;0.80;;;;;;;15.07;100.00;99366.44;5116644;27;20107;-79
2023/04/19 10:33:52;;;;;;;1.52;0.68;;;;;;;15.09;100.00;99367.16;5134910;27;20408;-81
2023/04/19 10:36:18;;;;;;;1.77;1.10;;;;;;;14.46;100.00;99253.88;5134375;27;20038;-80
2023/04/19 10:38:47;;;;;;;2.72;1.50;;;;;;;14.80;100.00;99384.13;5134188;27;20023;-82
2023/04/19 10:41:14;;;;;;;3.35;1.35;;;;;;;14.48;100.00;99331.34;5115981;27;20031;-79
2023/04/19 10:44:03;;;;;;;2.55;1.90;;;;;;;14.65;100.00;99316.72;5134167;27;20019;-80
2023/04/19 10:46:28;;;;;;;3.10;1.52;;;;;;;14.98;100.00;99385.69;5108212;27;20046;-80
2023/04/19 10:48:57;;;;;;;3.17;1.80;;;;;;;15.04;100.00;99367.41;5115975;27;20405;-80
2023/04/19 10:51:26;;;;;;;4.10;2.17;;;;;;;15.35;100.00;99361.41;5134088;27;20505;-77
2023/04/19 10:54:05;;;;;;;5.13;2.38;;;;;;;15.53;100.00;99366.31;5134084;27;20035;-77
2023/04/19 10:56:33;;;;;;;3.53;2.35;;;;;;;15.88;100.00;99346.31;5134276;27;20063;-77
2023/04/19 11:01:38;;;;;;;3.45;2.05;;;;;;;16.00;100.00;99350.69;5134125;27;20995;-80
2023/04/19 11:04:07;;;;;;;3.90;2.70;;;;;;;16.53;100.00;99351.75;5115054;27;20059;-81
2023/04/19 11:06:33;;;;;;;5.07;2.13;;;;;;;15.70;100.00;99234.63;5133050;27;20073;-81
2023/04/19 11:08:59;;;;;;;1.80;1.02;;;;;;;15.73;100.00;99365.13;5114962;27;20054;-81
2023/04/19 11:11:25;;;;;;;1.10;0.98;;;;;;;15.48;100.00;99341.88;5133639;27;20056;-83